sensor_id;sensor_type;location;lat;lon;timestamp;P1;durP1;ratioP1;P2;durP2;ratioP2
74369;SDS011;62805;44.644;10.942;2023-03-31T00:00:20;26.40;;;14.00;;
74369;SDS011;62805;44.644;10.942;2023-03-31T00:02:45;24.35;;;13.10;;
74369;SDS011;62805;44.644;10.942;2023-03-31T00:05:11;22.40;;;13.02;;
74369;SDS011;62805;44.644;10.942;2023-03-31T00:07:42;27.95;;;14.70;;
74369;SDS011;62805;44.644;10.942;2023-03-31T00:10:10;25.80;;;14.27;;
74369;SDS011;62805;44.644;10.942;2023-03-31T00:12:35;24.42;;;12.95;;
74369;SDS011;62805;44.644;10.942;2023-03-31T00:15:01;22.63;;;12.63;;
74369;SDS011;62805;44.644;10.942;2023-03-31T00:17:26;27.55;;;13.63;;
74369;SDS011;62805;44.644;10.942;2023-03-31T00:19:51;23.50;;;12.20;;
74369;SDS011;62805;44.644;10.942;2023-03-31T00:22:17;26.45;;;12.63;;
74369;SDS011;62805;44.644;10.942;2023-03-31T00:24:46;24.13;;;12.77;;
74369;SDS011;62805;44.644;10.942;2023-03-31T00:27:11;25.38;;;11.55;;
74369;SDS011;62805;44.644;10.942;2023-03-31T00:29:37;22.88;;;11.95;;
74369;SDS011;62805;44.644;10.942;2023-03-31T00:32:05;20.63;;;11.40;;
74369;SDS011;62805;44.644;10.942;2023-03-31T00:34:34;20.77;;;11.52;;
74369;SDS011;62805;44.644;10.942;2023-03-31T00:36:59;24.88;;;12.10;;
74369;SDS011;62805;44.644;10.942;2023-03-31T00:39:27;27.60;;;11.98;;
74369;SDS011;62805;44.644;10.942;2023-03-31T00:42:00;20.40;;;12.57;;
74369;SDS011;62805;44.644;10.942;2023-03-31T00:44:27;20.45;;;11.55;;
74369;SDS011;62805;44.644;10.942;2023-03-31T00:46:56;23.40;;;12.55;;
74369;SDS011;62805;44.644;10.942;2023-03-31T00:49:47;22.45;;;12.55;;
74369;SDS011;62805;44.644;10.942;2023-03-31T00:52:18;20.33;;;12.23;;
74369;SDS011;62805;44.644;10.942;2023-03-31T00:54:48;21.70;;;12.50;;
74369;SDS011;62805;44.644;10.942;2023-03-31T00:57:19;23.60;;;12.98;;
74369;SDS011;62805;44.644;10.942;2023-03-31T00:59:47;19.95;;;12.77;;
74369;SDS011;62805;44.644;10.942;2023-03-31T01:02:15;21.38;;;12.77;;
74369;SDS011;62805;44.644;10.942;2023-03-31T01:04:48;23.27;;;12.48;;
74369;SDS011;62805;44.644;10.942;2023-03-31T01:10:02;24.70;;;13.88;;
74369;SDS011;62805;44.644;10.942;2023-03-31T01:12:29;22.30;;;12.68;;
74369;SDS011;62805;44.644;10.942;2023-03-31T01:14:56;23.73;;;13.63;;
74369;SDS011;62805;44.644;10.942;2023-03-31T01:17:22;26.40;;;13.00;;
74369;SDS011;62805;44.644;10.942;2023-03-31T01:38:36;25.73;;;13.05;;
74369;SDS011;62805;44.644;10.942;2023-03-31T01:43:47;25.05;;;12.13;;
74369;SDS011;62805;44.644;10.942;2023-03-31T01:46:27;28.60;;;12.90;;
74369;SDS011;62805;44.644;10.942;2023-03-31T01:49:02;25.15;;;12.75;;
74369;SDS011;62805;44.644;10.942;2023-03-31T01:54:23;21.55;;;11.80;;
74369;SDS011;62805;44.644;10.942;2023-03-31T01:56:54;26.13;;;14.02;;
74369;SDS011;62805;44.644;10.942;2023-03-31T01:59:26;21.17;;;12.77;;
74369;SDS011;62805;44.644;10.942;2023-03-31T02:01:56;22.88;;;13.75;;
74369;SDS011;62805;44.644;10.942;2023-03-31T02:04:33;22.90;;;13.88;;
74369;SDS011;62805;44.644;10.942;2023-03-31T02:07:03;27.17;;;13.63;;
74369;SDS011;62805;44.644;10.942;2023-03-31T02:09:37;29.23;;;14.63;;
74369;SDS011;62805;44.644;10.942;2023-03-31T02:12:08;25.75;;;14.20;;
74369;SDS011;62805;44.644;10.942;2023-03-31T02:14:36;25.60;;;14.05;;
74369;SDS011;62805;44.644;10.942;2023-03-31T02:17:07;29.02;;;15.27;;
74369;SDS011;62805;44.644;10.942;2023-03-31T02:19:42;31.80;;;14.98;;
74369;SDS011;62805;44.644;10.942;2023-03-31T02:22:10;24.05;;;14.00;;
74369;SDS011;62805;44.644;10.942;2023-03-31T02:24:37;25.33;;;14.65;;
74369;SDS011;62805;44.644;10.942;2023-03-31T02:29:51;25.92;;;14.48;;
74369;SDS011;62805;44.644;10.942;2023-03-31T02:32:20;28.92;;;14.65;;
74369;SDS011;62805;44.644;10.942;2023-03-31T02:34:56;28.40;;;15.38;;
74369;SDS011;62805;44.644;10.942;2023-03-31T02:37:21;30.02;;;15.05;;
74369;SDS011;62805;44.644;10.942;2023-03-31T02:39:47;27.70;;;14.10;;
74369;SDS011;62805;44.644;10.942;2023-03-31T02:42:15;26.38;;;14.32;;
74369;SDS011;62805;44.644;10.942;2023-03-31T02:44:40;26.85;;;13.55;;
74369;SDS011;62805;44.644;10.942;2023-03-31T02:47:07;29.33;;;15.18;;
74369;SDS011;62805;44.644;10.942;2023-03-31T02:49:36;28.65;;;15.45;;
74369;SDS011;62805;44.644;10.942;2023-03-31T02:54:42;28.40;;;13.97;;
74369;SDS011;62805;44.644;10.942;2023-03-31T02:57:16;27.73;;;14.07;;
74369;SDS011;62805;44.644;10.942;2023-03-31T03:00:13;26.00;;;14.70;;
74369;SDS011;62805;44.644;10.942;2023-03-31T03:05:44;25.20;;;13.55;;
74369;SDS011;62805;44.644;10.942;2023-03-31T03:13:57;24.63;;;14.25;;
74369;SDS011;62805;44.644;10.942;2023-03-31T03:16:36;26.23;;;14.48;;
74369;SDS011;62805;44.644;10.942;2023-03-31T03:19:06;23.30;;;14.43;;
74369;SDS011;62805;44.644;10.942;2023-03-31T03:21:32;31.83;;;14.80;;
74369;SDS011;62805;44.644;10.942;2023-03-31T03:23:58;27.80;;;14.98;;
74369;SDS011;62805;44.644;10.942;2023-03-31T03:26:25;30.63;;;14.77;;
74369;SDS011;62805;44.644;10.942;2023-03-31T03:28:54;25.98;;;14.48;;
74369;SDS011;62805;44.644;10.942;2023-03-31T03:31:20;35.28;;;16.98;;
74369;SDS011;62805;44.644;10.942;2023-03-31T03:33:48;27.52;;;14.38;;
74369;SDS011;62805;44.644;10.942;2023-03-31T03:36:14;23.67;;;13.82;;
74369;SDS011;62805;44.644;10.942;2023-03-31T03:38:40;26.17;;;14.77;;
74369;SDS011;62805;44.644;10.942;2023-03-31T03:41:05;26.33;;;14.27;;
74369;SDS011;62805;44.644;10.942;2023-03-31T03:43:31;28.60;;;14.20;;
74369;SDS011;62805;44.644;10.942;2023-03-31T03:45:56;30.67;;;14.55;;
74369;SDS011;62805;44.644;10.942;2023-03-31T03:48:22;27.63;;;14.53;;
74369;SDS011;62805;44.644;10.942;2023-03-31T03:50:47;30.83;;;14.55;;
74369;SDS011;62805;44.644;10.942;2023-03-31T03:53:13;25.33;;;13.90;;
74369;SDS011;62805;44.644;10.942;2023-03-31T03:55:39;26.55;;;14.85;;
74369;SDS011;62805;44.644;10.942;2023-03-31T03:58:05;28.15;;;14.40;;
74369;SDS011;62805;44.644;10.942;2023-03-31T04:00:30;29.30;;;15.65;;
74369;SDS011;62805;44.644;10.942;2023-03-31T04:02:56;28.30;;;14.88;;
74369;SDS011;62805;44.644;10.942;2023-03-31T04:05:21;24.88;;;13.80;;
74369;SDS011;62805;44.644;10.942;2023-03-31T04:07:47;24.10;;;14.80;;
74369;SDS011;62805;44.644;10.942;2023-03-31T04:10:12;28.27;;;13.93;;
74369;SDS011;62805;44.644;10.942;2023-03-31T04:12:38;29.70;;;15.13;;
74369;SDS011;62805;44.644;10.942;2023-03-31T04:15:03;24.63;;;13.38;;
74369;SDS011;62805;44.644;10.942;2023-03-31T04:17:29;31.38;;;13.73;;
74369;SDS011;62805;44.644;10.942;2023-03-31T04:19:59;28.52;;;13.80;;
74369;SDS011;62805;44.644;10.942;2023-03-31T04:22:27;27.67;;;13.95;;
74369;SDS011;62805;44.644;10.942;2023-03-31T04:24:53;26.50;;;13.88;;
74369;SDS011;62805;44.644;10.942;2023-03-31T04:27:23;27.90;;;14.02;;
74369;SDS011;62805;44.644;10.942;2023-03-31T04:29:51;29.70;;;13.55;;
74369;SDS011;62805;44.644;10.942;2023-03-31T04:32:18;26.00;;;12.30;;
74369;SDS011;62805;44.644;10.942;2023-03-31T04:34:45;26.15;;;12.45;;
74369;SDS011;62805;44.644;10.942;2023-03-31T04:37:11;20.42;;;9.30;;
74369;SDS011;62805;44.644;10.942;2023-03-31T04:39:37;20.70;;;9.63;;
74369;SDS011;62805;44.644;10.942;2023-03-31T04:42:03;17.67;;;9.52;;
74369;SDS011;62805;44.644;10.942;2023-03-31T04:44:28;16.15;;;9.65;;
74369;SDS011;62805;44.644;10.942;2023-03-31T04:46:54;26.88;;;9.27;;
74369;SDS011;62805;44.644;10.942;2023-03-31T04:49:20;12.20;;;7.18;;
74369;SDS011;62805;44.644;10.942;2023-03-31T04:51:45;16.70;;;7.57;;
74369;SDS011;62805;44.644;10.942;2023-03-31T04:54:11;17.67;;;7.25;;
74369;SDS011;62805;44.644;10.942;2023-03-31T04:56:37;17.80;;;7.72;;
74369;SDS011;62805;44.644;10.942;2023-03-31T04:59:02;13.45;;;6.22;;
74369;SDS011;62805;44.644;10.942;2023-03-31T05:01:28;13.95;;;7.32;;
74369;SDS011;62805;44.644;10.942;2023-03-31T05:03:57;12.30;;;6.20;;
74369;SDS011;62805;44.644;10.942;2023-03-31T05:06:23;14.55;;;6.88;;
74369;SDS011;62805;44.644;10.942;2023-03-31T05:08:49;11.25;;;5.90;;
74369;SDS011;62805;44.644;10.942;2023-03-31T05:11:14;13.13;;;6.73;;
74369;SDS011;62805;44.644;10.942;2023-03-31T05:13:39;13.60;;;6.80;;
74369;SDS011;62805;44.644;10.942;2023-03-31T05:16:06;14.75;;;6.68;;
74369;SDS011;62805;44.644;10.942;2023-03-31T05:18:38;18.25;;;6.97;;
74369;SDS011;62805;44.644;10.942;2023-03-31T05:21:15;13.02;;;6.20;;
74369;SDS011;62805;44.644;10.942;2023-03-31T05:23:42;15.57;;;6.57;;
74369;SDS011;62805;44.644;10.942;2023-03-31T05:26:09;17.27;;;7.25;;
74369;SDS011;62805;44.644;10.942;2023-03-31T05:28:34;15.23;;;6.80;;
74369;SDS011;62805;44.644;10.942;2023-03-31T05:31:01;14.88;;;6.72;;
74369;SDS011;62805;44.644;10.942;2023-03-31T05:33:27;17.10;;;6.72;;
74369;SDS011;62805;44.644;10.942;2023-03-31T05:35:54;14.40;;;7.68;;
74369;SDS011;62805;44.644;10.942;2023-03-31T05:38:19;13.68;;;8.13;;
74369;SDS011;62805;44.644;10.942;2023-03-31T05:40:45;13.63;;;7.60;;
74369;SDS011;62805;44.644;10.942;2023-03-31T05:43:11;14.05;;;7.25;;
74369;SDS011;62805;44.644;10.942;2023-03-31T05:45:36;17.57;;;7.40;;
74369;SDS011;62805;44.644;10.942;2023-03-31T05:48:02;16.77;;;8.00;;
74369;SDS011;62805;44.644;10.942;2023-03-31T05:50:27;15.52;;;7.38;;
74369;SDS011;62805;44.644;10.942;2023-03-31T05:52:53;21.70;;;8.00;;
74369;SDS011;62805;44.644;10.942;2023-03-31T05:55:18;15.70;;;8.18;;
74369;SDS011;62805;44.644;10.942;2023-03-31T05:57:44;19.07;;;8.00;;
74369;SDS011;62805;44.644;10.942;2023-03-31T06:00:09;17.08;;;7.45;;
74369;SDS011;62805;44.644;10.942;2023-03-31T06:02:35;18.85;;;8.85;;
74369;SDS011;62805;44.644;10.942;2023-03-31T06:05:01;16.75;;;8.82;;
74369;SDS011;62805;44.644;10.942;2023-03-31T06:07:27;19.40;;;8.77;;
74369;SDS011;62805;44.644;10.942;2023-03-31T06:09:53;22.65;;;9.48;;
74369;SDS011;62805;44.644;10.942;2023-03-31T06:12:18;22.35;;;10.13;;
74369;SDS011;62805;44.644;10.942;2023-03-31T06:14:43;24.77;;;10.07;;
74369;SDS011;62805;44.644;10.942;2023-03-31T06:17:09;21.02;;;10.80;;
74369;SDS011;62805;44.644;10.942;2023-03-31T06:19:34;20.15;;;9.38;;
74369;SDS011;62805;44.644;10.942;2023-03-31T06:22:00;24.63;;;9.38;;
74369;SDS011;62805;44.644;10.942;2023-03-31T06:24:25;20.77;;;9.18;;
74369;SDS011;62805;44.644;10.942;2023-03-31T06:26:51;20.63;;;8.87;;
74369;SDS011;62805;44.644;10.942;2023-03-31T06:29:16;14.70;;;8.03;;
74369;SDS011;62805;44.644;10.942;2023-03-31T06:31:41;19.47;;;9.33;;
74369;SDS011;62805;44.644;10.942;2023-03-31T06:34:07;21.93;;;8.10;;
74369;SDS011;62805;44.644;10.942;2023-03-31T06:36:32;17.67;;;8.13;;
74369;SDS011;62805;44.644;10.942;2023-03-31T06:38:57;23.15;;;8.73;;
74369;SDS011;62805;44.644;10.942;2023-03-31T06:41:23;20.77;;;8.47;;
74369;SDS011;62805;44.644;10.942;2023-03-31T06:43:48;16.50;;;9.13;;
74369;SDS011;62805;44.644;10.942;2023-03-31T06:46:14;14.63;;;8.18;;
74369;SDS011;62805;44.644;10.942;2023-03-31T06:48:40;22.90;;;8.75;;
74369;SDS011;62805;44.644;10.942;2023-03-31T06:51:06;21.70;;;9.55;;
74369;SDS011;62805;44.644;10.942;2023-03-31T06:53:33;21.80;;;9.70;;
74369;SDS011;62805;44.644;10.942;2023-03-31T06:55:59;19.05;;;8.52;;
74369;SDS011;62805;44.644;10.942;2023-03-31T06:58:24;18.92;;;9.13;;
74369;SDS011;62805;44.644;10.942;2023-03-31T07:00:49;18.83;;;8.80;;
74369;SDS011;62805;44.644;10.942;2023-03-31T07:03:15;19.25;;;8.40;;
74369;SDS011;62805;44.644;10.942;2023-03-31T07:05:49;19.50;;;8.57;;
74369;SDS011;62805;44.644;10.942;2023-03-31T07:08:17;19.38;;;9.20;;
74369;SDS011;62805;44.644;10.942;2023-03-31T07:10:44;17.35;;;7.93;;
74369;SDS011;62805;44.644;10.942;2023-03-31T07:13:16;13.68;;;8.23;;
74369;SDS011;62805;44.644;10.942;2023-03-31T07:15:42;18.35;;;8.43;;
74369;SDS011;62805;44.644;10.942;2023-03-31T07:18:08;23.33;;;8.70;;
74369;SDS011;62805;44.644;10.942;2023-03-31T07:20:34;14.25;;;8.10;;
74369;SDS011;62805;44.644;10.942;2023-03-31T07:23:02;15.95;;;9.40;;
74369;SDS011;62805;44.644;10.942;2023-03-31T07:25:30;17.08;;;8.52;;
74369;SDS011;62805;44.644;10.942;2023-03-31T07:27:57;16.25;;;8.98;;
74369;SDS011;62805;44.644;10.942;2023-03-31T07:30:22;15.00;;;7.80;;
74369;SDS011;62805;44.644;10.942;2023-03-31T07:32:48;14.00;;;7.63;;
74369;SDS011;62805;44.644;10.942;2023-03-31T07:35:15;16.45;;;7.95;;
74369;SDS011;62805;44.644;10.942;2023-03-31T07:37:42;16.33;;;7.40;;
74369;SDS011;62805;44.644;10.942;2023-03-31T07:40:10;18.13;;;9.30;;
74369;SDS011;62805;44.644;10.942;2023-03-31T07:42:41;13.20;;;8.05;;
74369;SDS011;62805;44.644;10.942;2023-03-31T07:45:08;21.40;;;7.80;;
74369;SDS011;62805;44.644;10.942;2023-03-31T07:47:35;13.85;;;6.30;;
74369;SDS011;62805;44.644;10.942;2023-03-31T07:50:02;15.98;;;7.47;;
74369;SDS011;62805;44.644;10.942;2023-03-31T07:52:29;14.23;;;5.97;;
74369;SDS011;62805;44.644;10.942;2023-03-31T07:54:56;11.85;;;4.82;;
74369;SDS011;62805;44.644;10.942;2023-03-31T07:57:21;11.55;;;3.90;;
74369;SDS011;62805;44.644;10.942;2023-03-31T07:59:47;10.85;;;5.20;;
74369;SDS011;62805;44.644;10.942;2023-03-31T08:02:13;7.97;;;5.15;;
74369;SDS011;62805;44.644;10.942;2023-03-31T08:04:40;11.50;;;4.78;;
74369;SDS011;62805;44.644;10.942;2023-03-31T08:07:06;11.02;;;5.15;;
74369;SDS011;62805;44.644;10.942;2023-03-31T08:09:36;10.40;;;5.05;;
74369;SDS011;62805;44.644;10.942;2023-03-31T08:12:02;13.93;;;5.70;;
74369;SDS011;62805;44.644;10.942;2023-03-31T08:14:28;10.73;;;5.40;;
74369;SDS011;62805;44.644;10.942;2023-03-31T08:16:53;14.03;;;6.13;;
74369;SDS011;62805;44.644;10.942;2023-03-31T08:19:19;11.32;;;5.43;;
74369;SDS011;62805;44.644;10.942;2023-03-31T08:21:46;11.00;;;5.63;;
74369;SDS011;62805;44.644;10.942;2023-03-31T08:24:11;14.55;;;5.80;;
74369;SDS011;62805;44.644;10.942;2023-03-31T08:26:37;16.27;;;6.10;;
74369;SDS011;62805;44.644;10.942;2023-03-31T08:29:02;15.27;;;6.85;;
74369;SDS011;62805;44.644;10.942;2023-03-31T08:31:28;18.48;;;7.85;;
74369;SDS011;62805;44.644;10.942;2023-03-31T08:33:54;16.38;;;7.45;;
74369;SDS011;62805;44.644;10.942;2023-03-31T08:36:20;17.02;;;7.60;;
74369;SDS011;62805;44.644;10.942;2023-03-31T08:38:45;18.48;;;7.63;;
74369;SDS011;62805;44.644;10.942;2023-03-31T08:41:20;18.45;;;8.38;;
74369;SDS011;62805;44.644;10.942;2023-03-31T08:43:52;20.25;;;8.25;;
74369;SDS011;62805;44.644;10.942;2023-03-31T08:46:20;16.67;;;8.13;;
74369;SDS011;62805;44.644;10.942;2023-03-31T08:48:50;18.08;;;8.45;;
74369;SDS011;62805;44.644;10.942;2023-03-31T08:56:54;17.75;;;10.10;;
74369;SDS011;62805;44.644;10.942;2023-03-31T08:59:26;24.05;;;9.23;;
74369;SDS011;62805;44.644;10.942;2023-03-31T09:02:12;19.58;;;8.82;;
74369;SDS011;62805;44.644;10.942;2023-03-31T09:05:00;18.23;;;8.65;;
74369;SDS011;62805;44.644;10.942;2023-03-31T09:10:58;19.67;;;9.40;;
74369;SDS011;62805;44.644;10.942;2023-03-31T09:16:14;18.58;;;8.48;;
74369;SDS011;62805;44.644;10.942;2023-03-31T09:18:44;21.45;;;10.30;;
74369;SDS011;62805;44.644;10.942;2023-03-31T09:23:43;17.15;;;9.18;;
74369;SDS011;62805;44.644;10.942;2023-03-31T09:26:36;18.10;;;9.10;;
74369;SDS011;62805;44.644;10.942;2023-03-31T09:31:53;20.92;;;9.52;;
74369;SDS011;62805;44.644;10.942;2023-03-31T09:34:27;20.67;;;10.38;;
74369;SDS011;62805;44.644;10.942;2023-03-31T09:36:55;20.30;;;9.80;;
74369;SDS011;62805;44.644;10.942;2023-03-31T09:39:21;21.25;;;9.45;;
74369;SDS011;62805;44.644;10.942;2023-03-31T09:41:48;17.15;;;8.80;;
74369;SDS011;62805;44.644;10.942;2023-03-31T09:44:21;18.52;;;8.82;;
74369;SDS011;62805;44.644;10.942;2023-03-31T09:46:50;21.15;;;9.02;;
74369;SDS011;62805;44.644;10.942;2023-03-31T09:49:20;26.30;;;11.18;;
74369;SDS011;62805;44.644;10.942;2023-03-31T09:51:52;23.35;;;9.65;;
74369;SDS011;62805;44.644;10.942;2023-03-31T09:54:45;25.75;;;10.65;;
74369;SDS011;62805;44.644;10.942;2023-03-31T09:57:24;21.70;;;10.30;;
74369;SDS011;62805;44.644;10.942;2023-03-31T09:59:50;17.73;;;9.43;;
74369;SDS011;62805;44.644;10.942;2023-03-31T10:04:50;21.77;;;9.70;;
74369;SDS011;62805;44.644;10.942;2023-03-31T10:07:20;24.17;;;10.43;;
74369;SDS011;62805;44.644;10.942;2023-03-31T10:09:47;20.33;;;10.18;;
74369;SDS011;62805;44.644;10.942;2023-03-31T10:12:16;17.90;;;9.30;;
74369;SDS011;62805;44.644;10.942;2023-03-31T10:14:48;19.42;;;9.60;;
74369;SDS011;62805;44.644;10.942;2023-03-31T10:17:45;15.18;;;8.68;;
74369;SDS011;62805;44.644;10.942;2023-03-31T10:20:19;17.67;;;8.25;;
74369;SDS011;62805;44.644;10.942;2023-03-31T10:23:23;17.15;;;7.93;;
74369;SDS011;62805;44.644;10.942;2023-03-31T10:25:53;18.00;;;8.63;;
74369;SDS011;62805;44.644;10.942;2023-03-31T10:28:20;14.23;;;8.77;;
74369;SDS011;62805;44.644;10.942;2023-03-31T10:30:50;15.15;;;7.25;;
74369;SDS011;62805;44.644;10.942;2023-03-31T10:33:19;12.77;;;7.57;;
74369;SDS011;62805;44.644;10.942;2023-03-31T10:35:58;18.33;;;7.10;;
74369;SDS011;62805;44.644;10.942;2023-03-31T10:38:36;14.88;;;6.78;;
74369;SDS011;62805;44.644;10.942;2023-03-31T10:41:04;15.02;;;6.50;;
74369;SDS011;62805;44.644;10.942;2023-03-31T10:43:40;14.30;;;6.45;;
74369;SDS011;62805;44.644;10.942;2023-03-31T10:46:08;12.05;;;5.45;;
74369;SDS011;62805;44.644;10.942;2023-03-31T10:48:34;9.77;;;4.75;;
74369;SDS011;62805;44.644;10.942;2023-03-31T10:51:48;15.18;;;4.95;;
74369;SDS011;62805;44.644;10.942;2023-03-31T10:53:52;11.73;;;4.50;;
74369;SDS011;62805;44.644;10.942;2023-03-31T11:04:54;15.88;;;5.28;;
74369;SDS011;62805;44.644;10.942;2023-03-31T11:13:21;9.18;;;3.30;;
74369;SDS011;62805;44.644;10.942;2023-03-31T11:41:38;7.57;;;2.65;;
74369;SDS011;62805;44.644;10.942;2023-03-31T11:52:34;6.65;;;1.40;;
74369;SDS011;62805;44.644;10.942;2023-03-31T11:55:06;6.50;;;2.28;;
74369;SDS011;62805;44.644;10.942;2023-03-31T12:00:29;7.57;;;2.30;;
74369;SDS011;62805;44.644;10.942;2023-03-31T12:06:20;5.60;;;1.65;;
74369;SDS011;62805;44.644;10.942;2023-03-31T12:13:46;5.40;;;1.90;;
74369;SDS011;62805;44.644;10.942;2023-03-31T12:16:21;6.38;;;1.75;;
74369;SDS011;62805;44.644;10.942;2023-03-31T12:21:34;9.38;;;1.58;;
74369;SDS011;62805;44.644;10.942;2023-03-31T12:24:03;5.90;;;1.50;;
74369;SDS011;62805;44.644;10.942;2023-03-31T12:32:04;6.53;;;2.15;;
74369;SDS011;62805;44.644;10.942;2023-03-31T12:34:37;6.97;;;1.50;;
74369;SDS011;62805;44.644;10.942;2023-03-31T12:40:20;8.07;;;1.60;;
74369;SDS011;62805;44.644;10.942;2023-03-31T12:43:23;3.97;;;1.60;;
74369;SDS011;62805;44.644;10.942;2023-03-31T12:46:22;6.03;;;1.60;;
74369;SDS011;62805;44.644;10.942;2023-03-31T12:59:37;9.25;;;1.63;;
74369;SDS011;62805;44.644;10.942;2023-03-31T13:04:38;7.28;;;1.70;;
74369;SDS011;62805;44.644;10.942;2023-03-31T13:07:07;7.78;;;1.75;;
74369;SDS011;62805;44.644;10.942;2023-03-31T13:09:55;6.68;;;1.40;;
74369;SDS011;62805;44.644;10.942;2023-03-31T13:12:22;5.80;;;1.42;;
74369;SDS011;62805;44.644;10.942;2023-03-31T13:14:52;6.38;;;1.58;;
74369;SDS011;62805;44.644;10.942;2023-03-31T13:17:27;6.28;;;1.35;;
74369;SDS011;62805;44.644;10.942;2023-03-31T13:19:56;5.50;;;1.48;;
74369;SDS011;62805;44.644;10.942;2023-03-31T13:22:42;6.20;;;1.63;;
74369;SDS011;62805;44.644;10.942;2023-03-31T13:28:44;5.22;;;1.55;;
74369;SDS011;62805;44.644;10.942;2023-03-31T13:30:49;9.85;;;2.60;;
74369;SDS011;62805;44.644;10.942;2023-03-31T13:47:15;6.55;;;1.70;;
74369;SDS011;62805;44.644;10.942;2023-03-31T13:49:53;8.13;;;2.08;;
74369;SDS011;62805;44.644;10.942;2023-03-31T13:52:34;7.68;;;2.03;;
74369;SDS011;62805;44.644;10.942;2023-03-31T13:58:13;7.85;;;1.88;;
74369;SDS011;62805;44.644;10.942;2023-03-31T14:03:47;8.52;;;2.08;;
74369;SDS011;62805;44.644;10.942;2023-03-31T14:06:38;9.27;;;1.92;;
74369;SDS011;62805;44.644;10.942;2023-03-31T14:09:20;9.38;;;1.80;;
74369;SDS011;62805;44.644;10.942;2023-03-31T14:11:50;10.50;;;2.10;;
74369;SDS011;62805;44.644;10.942;2023-03-31T14:14:17;8.68;;;2.20;;
74369;SDS011;62805;44.644;10.942;2023-03-31T14:25:01;11.88;;;2.53;;
74369;SDS011;62805;44.644;10.942;2023-03-31T14:30:29;5.43;;;2.00;;
74369;SDS011;62805;44.644;10.942;2023-03-31T14:39:02;5.55;;;1.63;;
74369;SDS011;62805;44.644;10.942;2023-03-31T14:41:31;7.32;;;1.90;;
74369;SDS011;62805;44.644;10.942;2023-03-31T14:43:58;9.20;;;1.80;;
74369;SDS011;62805;44.644;10.942;2023-03-31T14:46:28;8.70;;;2.08;;
74369;SDS011;62805;44.644;10.942;2023-03-31T14:48:56;5.88;;;1.80;;
74369;SDS011;62805;44.644;10.942;2023-03-31T14:51:29;7.60;;;1.90;;
74369;SDS011;62805;44.644;10.942;2023-03-31T14:53:58;8.68;;;2.42;;
74369;SDS011;62805;44.644;10.942;2023-03-31T14:56:36;8.73;;;1.92;;
74369;SDS011;62805;44.644;10.942;2023-03-31T14:59:04;10.25;;;2.90;;
74369;SDS011;62805;44.644;10.942;2023-03-31T15:01:32;6.68;;;1.95;;
74369;SDS011;62805;44.644;10.942;2023-03-31T15:04:05;6.65;;;2.35;;
74369;SDS011;62805;44.644;10.942;2023-03-31T15:09:01;4.75;;;2.10;;
74369;SDS011;62805;44.644;10.942;2023-03-31T15:11:28;6.00;;;2.05;;
74369;SDS011;62805;44.644;10.942;2023-03-31T15:13:54;13.25;;;2.67;;
74369;SDS011;62805;44.644;10.942;2023-03-31T15:19:00;10.63;;;2.80;;
74369;SDS011;62805;44.644;10.942;2023-03-31T15:21:35;7.13;;;2.10;;
74369;SDS011;62805;44.644;10.942;2023-03-31T15:24:02;14.15;;;4.05;;
74369;SDS011;62805;44.644;10.942;2023-03-31T15:26:29;5.97;;;1.73;;
74369;SDS011;62805;44.644;10.942;2023-03-31T15:29:04;6.75;;;1.92;;
74369;SDS011;62805;44.644;10.942;2023-03-31T15:31:36;7.47;;;2.60;;
74369;SDS011;62805;44.644;10.942;2023-03-31T15:34:11;5.60;;;1.90;;
74369;SDS011;62805;44.644;10.942;2023-03-31T15:36:41;8.80;;;2.10;;
74369;SDS011;62805;44.644;10.942;2023-03-31T15:39:07;6.60;;;2.22;;
74369;SDS011;62805;44.644;10.942;2023-03-31T15:41:33;7.30;;;1.90;;
74369;SDS011;62805;44.644;10.942;2023-03-31T15:49:52;7.00;;;2.00;;
74369;SDS011;62805;44.644;10.942;2023-03-31T15:52:25;8.68;;;2.75;;
74369;SDS011;62805;44.644;10.942;2023-03-31T15:54:53;12.48;;;2.95;;
74369;SDS011;62805;44.644;10.942;2023-03-31T15:59:54;7.60;;;2.45;;
74369;SDS011;62805;44.644;10.942;2023-03-31T16:02:22;6.10;;;2.13;;
74369;SDS011;62805;44.644;10.942;2023-03-31T16:04:53;8.60;;;2.33;;
74369;SDS011;62805;44.644;10.942;2023-03-31T16:07:21;8.80;;;2.45;;
74369;SDS011;62805;44.644;10.942;2023-03-31T16:12:21;5.35;;;2.00;;
74369;SDS011;62805;44.644;10.942;2023-03-31T16:17:26;7.10;;;2.33;;
74369;SDS011;62805;44.644;10.942;2023-03-31T16:20:00;9.20;;;2.35;;
74369;SDS011;62805;44.644;10.942;2023-03-31T16:22:36;8.90;;;3.05;;
74369;SDS011;62805;44.644;10.942;2023-03-31T16:25:10;7.43;;;2.05;;
74369;SDS011;62805;44.644;10.942;2023-03-31T16:27:45;14.13;;;4.90;;
74369;SDS011;62805;44.644;10.942;2023-03-31T16:30:16;7.38;;;2.28;;
74369;SDS011;62805;44.644;10.942;2023-03-31T16:33:04;8.05;;;1.90;;
74369;SDS011;62805;44.644;10.942;2023-03-31T16:35:35;8.65;;;2.20;;
74369;SDS011;62805;44.644;10.942;2023-03-31T16:38:01;8.05;;;2.40;;
74369;SDS011;62805;44.644;10.942;2023-03-31T16:40:33;7.20;;;1.92;;
74369;SDS011;62805;44.644;10.942;2023-03-31T16:43:09;7.70;;;2.10;;
74369;SDS011;62805;44.644;10.942;2023-03-31T16:45:36;4.28;;;1.70;;
74369;SDS011;62805;44.644;10.942;2023-03-31T16:48:02;6.47;;;1.80;;
74369;SDS011;62805;44.644;10.942;2023-03-31T16:50:28;6.65;;;2.42;;
74369;SDS011;62805;44.644;10.942;2023-03-31T16:52:53;8.85;;;2.17;;
74369;SDS011;62805;44.644;10.942;2023-03-31T16:55:19;10.80;;;2.40;;
74369;SDS011;62805;44.644;10.942;2023-03-31T16:57:44;8.10;;;2.17;;
74369;SDS011;62805;44.644;10.942;2023-03-31T17:00:10;8.68;;;2.25;;
74369;SDS011;62805;44.644;10.942;2023-03-31T17:02:35;13.25;;;2.90;;
74369;SDS011;62805;44.644;10.942;2023-03-31T17:05:01;5.53;;;2.42;;
74369;SDS011;62805;44.644;10.942;2023-03-31T17:07:28;10.32;;;2.55;;
74369;SDS011;62805;44.644;10.942;2023-03-31T17:09:54;8.75;;;2.33;;
74369;SDS011;62805;44.644;10.942;2023-03-31T17:12:20;11.48;;;2.60;;
74369;SDS011;62805;44.644;10.942;2023-03-31T17:14:45;7.53;;;2.63;;
74369;SDS011;62805;44.644;10.942;2023-03-31T17:17:10;11.07;;;2.30;;
74369;SDS011;62805;44.644;10.942;2023-03-31T17:19:36;8.50;;;2.60;;
74369;SDS011;62805;44.644;10.942;2023-03-31T17:22:02;9.60;;;3.13;;
74369;SDS011;62805;44.644;10.942;2023-03-31T17:24:27;7.57;;;2.63;;
74369;SDS011;62805;44.644;10.942;2023-03-31T17:26:53;9.70;;;2.75;;
74369;SDS011;62805;44.644;10.942;2023-03-31T17:29:19;14.00;;;3.25;;
74369;SDS011;62805;44.644;10.942;2023-03-31T17:31:44;11.88;;;2.90;;
74369;SDS011;62805;44.644;10.942;2023-03-31T17:34:10;10.75;;;3.13;;
74369;SDS011;62805;44.644;10.942;2023-03-31T17:36:36;8.38;;;3.25;;
74369;SDS011;62805;44.644;10.942;2023-03-31T17:39:02;8.40;;;2.92;;
74369;SDS011;62805;44.644;10.942;2023-03-31T17:41:29;13.07;;;3.65;;
74369;SDS011;62805;44.644;10.942;2023-03-31T17:43:55;9.63;;;3.60;;
74369;SDS011;62805;44.644;10.942;2023-03-31T17:46:21;12.80;;;4.63;;
74369;SDS011;62805;44.644;10.942;2023-03-31T17:48:46;14.65;;;5.65;;
74369;SDS011;62805;44.644;10.942;2023-03-31T17:51:18;17.60;;;5.90;;
74369;SDS011;62805;44.644;10.942;2023-03-31T17:53:46;11.60;;;5.43;;
74369;SDS011;62805;44.644;10.942;2023-03-31T17:56:12;16.02;;;7.15;;